createdAt,value
2023-03-01T02:25:45.073Z,88396.00
2023-03-01T02:41:44.797Z,88384.00
2023-03-01T03:51:43.788Z,88331.00
2023-03-01T03:52:43.786Z,88323.00
2023-03-01T03:53:43.781Z,88325.00
2023-03-01T03:54:43.766Z,88323.00
2023-03-01T03:55:43.760Z,88325.00
2023-03-01T03:56:43.753Z,88325.00
2023-03-01T03:57:43.754Z,88323.00
2023-03-01T03:58:43.744Z,88317.00
2023-03-01T03:59:43.733Z,88315.00
2023-03-01T04:00:43.738Z,88317.00
2023-03-01T04:01:43.780Z,88317.00
2023-03-01T04:02:43.762Z,88315.00
2023-03-01T04:03:43.698Z,88315.00
2023-03-01T04:04:43.684Z,88310.00
2023-03-01T04:05:43.673Z,88310.00
2023-03-01T04:06:43.669Z,88313.00
2023-03-01T07:03:41.117Z,88300.00
2023-03-01T07:55:27.185Z,88294.00
2023-03-01T07:56:27.134Z,88296.00
2023-03-01T07:57:27.082Z,88292.00
2023-03-01T07:58:27.037Z,88296.00
2023-03-01T07:59:26.973Z,88294.00
2023-03-01T08:00:27.044Z,88292.00
2023-03-01T08:01:26.945Z,88288.00
2023-03-01T08:02:26.841Z,88286.00
2023-03-01T08:03:26.830Z,88284.00
2023-03-01T08:04:26.814Z,88290.00
2023-03-01T08:05:26.706Z,88288.00
2023-03-01T08:06:26.631Z,88290.00
2023-03-01T08:07:26.603Z,88288.00
2023-03-01T08:08:26.533Z,88288.00
2023-03-01T08:09:26.486Z,88286.00
2023-03-01T08:10:26.474Z,88284.00
2023-03-01T08:11:26.426Z,88286.00
2023-03-01T08:12:26.324Z,88284.00
2023-03-01T08:13:26.263Z,88280.00
2023-03-01T08:14:26.266Z,88274.00
2023-03-01T08:15:26.175Z,88276.00
2023-03-01T08:16:26.150Z,88278.00
2023-03-01T08:17:26.071Z,88276.00
2023-03-01T08:18:26.023Z,88276.00
2023-03-01T08:19:25.968Z,88270.00
2023-03-01T08:20:25.995Z,88266.00
2023-03-01T08:21:25.865Z,88272.00
2023-03-01T08:22:25.820Z,88276.00
2023-03-01T08:23:25.743Z,88274.00
2023-03-01T08:24:25.741Z,88272.00
2023-03-01T08:25:25.646Z,88268.00
2023-03-01T08:26:25.616Z,88266.00
2023-03-01T08:27:25.715Z,88266.00
2023-03-01T08:28:25.493Z,88270.00
2023-03-01T08:29:25.461Z,88270.00
2023-03-01T08:30:25.416Z,88270.00
2023-03-01T08:31:25.360Z,88266.00
2023-03-01T08:32:25.331Z,88268.00
2023-03-01T08:33:25.337Z,88272.00
2023-03-01T08:34:25.172Z,88272.00
2023-03-01T08:35:25.184Z,88268.00
2023-03-01T08:36:25.088Z,88268.00
2023-03-01T08:37:25.000Z,88266.00
2023-03-01T08:38:24.965Z,88263.00
2023-03-01T08:39:24.938Z,88263.00
2023-03-01T08:40:24.869Z,88263.00
2023-03-01T08:41:24.776Z,88261.00
2023-03-01T08:42:24.732Z,88257.00
2023-03-01T08:43:25.514Z,88253.00
2023-03-01T08:44:24.635Z,88261.00
2023-03-01T08:45:24.574Z,88257.00
2023-03-01T08:46:24.511Z,88255.00
2023-03-01T08:47:24.579Z,88249.00
2023-03-01T08:48:24.420Z,88249.00
2023-03-01T08:49:24.363Z,88243.00
2023-03-01T08:50:24.335Z,88249.00
2023-03-01T08:51:24.244Z,88247.00
2023-03-01T08:52:24.194Z,88245.00
2023-03-01T08:53:24.150Z,88245.00
2023-03-01T08:54:24.085Z,88243.00
2023-03-01T08:55:24.027Z,88239.00
2023-03-01T08:56:23.987Z,88245.00
2023-03-01T08:57:23.912Z,88241.00
2023-03-01T08:58:23.858Z,88237.00
2023-03-01T08:59:23.830Z,88233.00
2023-03-01T09:00:23.754Z,88225.00
2023-03-01T09:01:23.810Z,88229.00
2023-03-01T09:02:23.795Z,88231.00
2023-03-01T09:03:23.585Z,88231.00
2023-03-01T09:04:23.560Z,88231.00
2023-03-01T09:44:21.342Z,88171.00
2023-03-01T09:53:20.794Z,88153.00
2023-03-01T09:54:20.736Z,88155.00
2023-03-01T09:55:20.703Z,88159.00
2023-03-01T09:56:20.638Z,88161.00
2023-03-01T09:57:20.578Z,88159.00
2023-03-01T09:58:20.522Z,88161.00
2023-03-01T09:59:22.284Z,88159.00
2023-03-01T10:00:20.430Z,88151.00
2023-03-01T10:01:20.335Z,88149.00
2023-03-01T10:02:20.283Z,88151.00
2023-03-01T10:03:20.268Z,88149.00
2023-03-01T10:04:20.286Z,88146.00
2023-03-01T10:05:20.127Z,88148.00
2023-03-01T10:06:34.047Z,88144.00
2023-03-01T10:07:20.998Z,88146.00
2023-03-01T10:08:19.946Z,88146.00
2023-03-01T10:09:19.905Z,88144.00
2023-03-01T10:10:19.815Z,88140.00
2023-03-01T10:11:21.105Z,88140.00
2023-03-01T10:12:19.716Z,88138.00
2023-03-01T10:13:19.652Z,88136.00
2023-03-01T10:14:19.580Z,88134.00
2023-03-01T10:15:19.525Z,88138.00
2023-03-01T10:16:19.529Z,88138.00
2023-03-01T10:17:20.464Z,88134.00
2023-03-01T10:18:19.448Z,88132.00
2023-03-01T10:19:19.302Z,88126.00
2023-03-01T10:20:19.242Z,88130.00
2023-03-01T10:21:19.176Z,88128.00
2023-03-01T10:22:19.121Z,88132.00
2023-03-01T10:23:19.046Z,88128.00
2023-03-01T10:24:18.985Z,88122.00
2023-03-01T10:25:18.920Z,88122.00
2023-03-01T10:26:18.878Z,88122.00
2023-03-01T10:27:18.830Z,88122.00
2023-03-01T10:28:18.805Z,88120.00
2023-03-01T10:29:18.680Z,88118.00
2023-03-01T10:30:18.662Z,88114.00
2023-03-01T10:31:18.570Z,88114.00
2023-03-01T10:32:18.529Z,88114.00
2023-03-01T10:33:18.410Z,88120.00
2023-03-01T10:34:18.390Z,88118.00
2023-03-01T10:35:18.269Z,88116.00
2023-03-01T10:36:18.203Z,88116.00
2023-03-01T10:37:18.182Z,88112.00
2023-03-01T10:38:18.076Z,88116.00
2023-03-01T10:39:18.017Z,88120.00
2023-03-01T10:40:17.950Z,88112.00
2023-03-01T10:41:17.885Z,88114.00
2023-03-01T10:42:17.818Z,88112.00
2023-03-01T11:02:24.467Z,88083.00
2023-03-01T11:03:17.498Z,88081.00
2023-03-01T11:04:16.451Z,88081.00
2023-03-01T11:05:16.379Z,88081.00
2023-03-01T11:06:16.349Z,88079.00
2023-03-01T11:07:16.240Z,88075.00
2023-03-01T11:08:16.174Z,88071.00
2023-03-01T11:09:16.109Z,88069.00
2023-03-01T11:10:16.070Z,88065.00
2023-03-01T11:11:15.994Z,88063.00
2023-03-01T11:12:15.923Z,88055.00
2023-03-01T11:13:15.881Z,88053.00
2023-03-01T11:14:25.933Z,88057.00
2023-03-01T11:15:16.791Z,88061.00
2023-03-01T11:16:15.736Z,88055.00
2023-03-01T11:17:15.651Z,88051.00
2023-03-01T11:18:15.578Z,88046.00
2023-03-01T11:19:15.504Z,88044.00
2023-03-01T11:20:15.495Z,88044.00
2023-03-01T11:21:15.404Z,88044.00
2023-03-01T11:22:15.455Z,88042.00
2023-03-01T11:23:15.298Z,88042.00
2023-03-01T11:24:15.226Z,88044.00
2023-03-01T11:25:15.176Z,88047.00
2023-03-01T11:26:15.111Z,88046.00
2023-03-01T11:27:15.050Z,88047.00
2023-03-01T11:28:14.997Z,88049.00
2023-03-01T11:29:14.914Z,88047.00
2023-03-01T11:30:14.864Z,88049.00
2023-03-01T11:31:14.777Z,88047.00
2023-03-01T11:32:14.839Z,88049.00
2023-03-01T11:33:14.725Z,88044.00
2023-03-01T11:34:14.557Z,88038.00
2023-03-01T11:35:14.490Z,88032.00
2023-03-01T11:36:14.507Z,88032.00
2023-03-01T11:37:14.509Z,88034.00
2023-03-01T11:38:14.409Z,88028.00
2023-03-01T11:39:14.262Z,88024.00
2023-03-01T11:40:14.211Z,88020.00
2023-03-01T11:41:14.209Z,88014.00
2023-03-01T11:42:19.078Z,88014.00
2023-03-01T11:44:14.057Z,88010.00
2023-03-01T11:45:14.023Z,88014.00
2023-03-01T11:46:13.958Z,88010.00
2023-03-01T11:49:13.823Z,88016.00
2023-03-01T11:53:13.616Z,88012.00
2023-03-01T11:54:13.522Z,88012.00
2023-03-01T11:56:13.412Z,88010.00
2023-03-01T11:57:13.343Z,88014.00
2023-03-01T11:58:13.294Z,88016.00
2023-03-01T11:59:13.226Z,88016.00
2023-03-01T12:00:13.127Z,88018.00
2023-03-01T12:01:13.104Z,88016.00
2023-03-01T12:02:13.095Z,88016.00
2023-03-01T12:03:12.966Z,88018.00
2023-03-01T12:04:12.920Z,88016.00
2023-03-01T12:05:12.816Z,88018.00
2023-03-01T12:06:12.762Z,88018.00
2023-03-01T12:07:12.684Z,88016.00
2023-03-01T12:08:12.620Z,88018.00
2023-03-01T12:09:12.593Z,88018.00
2023-03-01T12:10:12.486Z,88018.00
2023-03-01T12:11:12.434Z,88022.00
2023-03-01T12:12:12.358Z,88026.00
2023-03-01T14:43:05.197Z,87952.00
2023-03-01T15:37:02.763Z,87967.00
2023-03-01T15:38:02.704Z,87969.00
2023-03-01T15:39:02.656Z,87971.00
2023-03-01T15:40:02.749Z,87969.00
2023-03-01T15:41:02.600Z,87967.00
2023-03-01T15:42:02.530Z,87965.00
2023-03-01T15:43:02.484Z,87965.00
2023-03-01T15:44:02.446Z,87963.00
2023-03-01T15:45:02.400Z,87967.00
2023-03-01T15:46:02.379Z,87969.00
2023-03-01T16:55:59.740Z,88020.00
2023-03-01T18:37:56.193Z,88049.00
2023-03-01T18:44:55.959Z,88059.00
2023-03-01T18:45:55.944Z,88059.00
2023-03-01T18:47:55.856Z,88055.00
2023-03-01T18:48:55.857Z,88057.00
2023-03-01T18:50:55.749Z,88063.00
2023-03-01T18:51:55.725Z,88065.00
2023-03-01T18:52:55.673Z,88065.00
2023-03-01T18:53:55.664Z,88063.00
2023-03-01T18:54:55.622Z,88063.00
2023-03-01T18:55:57.908Z,88063.00
2023-03-01T19:12:55.182Z,88063.00
2023-03-01T19:13:55.149Z,88059.00
2023-03-01T19:14:55.127Z,88061.00
2023-03-01T19:15:55.134Z,88061.00
2023-03-01T19:16:55.051Z,88059.00
2023-03-01T19:17:55.022Z,88059.00
2023-03-01T19:18:55.009Z,88059.00
2023-03-01T19:19:54.963Z,88053.00
2023-03-01T19:20:58.938Z,88059.00
2023-03-01T19:22:05.149Z,88061.00
2023-03-01T19:22:55.877Z,88061.00
2023-03-01T19:23:54.851Z,88061.00
2023-03-01T19:24:54.829Z,88061.00
2023-03-01T19:25:54.793Z,88065.00
2023-03-01T19:26:54.753Z,88063.00
2023-03-01T19:27:54.732Z,88065.00
2023-03-01T19:28:54.693Z,88065.00
2023-03-01T19:29:54.658Z,88065.00
2023-03-01T19:30:54.623Z,88061.00
2023-03-01T19:31:54.673Z,88061.00
2023-03-01T19:32:54.561Z,88063.00
2023-03-01T19:33:59.459Z,88067.00
2023-03-01T19:34:55.491Z,88067.00
2023-03-01T19:35:56.664Z,88067.00
2023-03-01T19:36:54.414Z,88067.00
2023-03-01T19:37:54.381Z,88069.00
2023-03-01T19:38:54.343Z,88067.00
2023-03-01T19:39:54.305Z,88067.00
2023-03-01T19:40:54.285Z,88067.00
2023-03-01T19:41:54.250Z,88071.00
2023-03-01T19:42:54.232Z,88067.00
2023-03-01T19:43:54.174Z,88069.00
2023-03-01T19:44:54.177Z,88069.00
2023-03-01T19:45:54.125Z,88065.00
2023-03-01T19:46:54.135Z,88067.00
2023-03-01T19:47:54.043Z,88067.00
2023-03-01T19:48:54.074Z,88067.00
2023-03-01T19:49:53.980Z,88069.00
2023-03-01T19:50:53.953Z,88067.00
2023-03-01T19:51:53.916Z,88069.00
2023-03-01T19:52:53.899Z,88069.00
2023-03-01T19:53:54.852Z,88069.00
2023-03-01T19:55:03.903Z,88071.00
2023-03-01T19:55:54.809Z,88073.00
2023-03-01T19:56:53.782Z,88069.00
2023-03-01T19:57:53.742Z,88071.00
2023-03-01T19:58:53.710Z,88075.00
2023-03-01T19:59:53.678Z,88075.00
2023-03-01T20:00:53.653Z,88073.00
2023-03-01T20:01:53.730Z,88079.00
2023-03-01T20:02:53.643Z,88081.00
2023-03-01T20:03:53.555Z,88081.00
2023-03-01T20:04:53.526Z,88081.00
2023-03-01T20:05:53.492Z,88083.00
2023-03-01T20:06:53.483Z,88079.00
2023-03-01T20:07:53.443Z,88083.00
2023-03-01T20:08:53.413Z,88081.00
2023-03-01T20:09:53.367Z,88083.00
2023-03-01T20:10:53.348Z,88083.00
2023-03-01T20:11:53.348Z,88087.00
2023-03-01T20:12:53.284Z,88089.00
2023-03-01T20:13:53.252Z,88087.00
2023-03-01T20:14:53.236Z,88081.00
2023-03-01T20:15:53.203Z,88081.00
2023-03-01T20:16:53.187Z,88085.00
2023-03-01T20:17:53.136Z,88085.00
2023-03-01T20:18:53.119Z,88087.00
2023-03-01T20:19:53.131Z,88089.00
2023-03-01T20:20:53.056Z,88089.00
2023-03-01T20:21:53.027Z,88091.00
2023-03-01T20:22:53.010Z,88089.00
2023-03-01T20:23:52.988Z,88087.00
2023-03-01T20:24:52.961Z,88085.00
2023-03-01T20:25:52.919Z,88089.00
2023-03-01T20:26:52.889Z,88091.00
2023-03-01T20:27:52.854Z,88089.00
2023-03-01T20:28:52.850Z,88091.00
2023-03-01T20:29:52.798Z,88091.00
2023-03-01T20:30:52.769Z,88091.00
2023-03-01T20:31:52.879Z,88089.00
2023-03-01T20:32:52.728Z,88087.00
2023-03-01T20:33:52.693Z,88085.00
2023-03-01T20:34:52.709Z,88083.00
2023-03-01T20:35:54.451Z,88081.00
2023-03-01T20:36:52.662Z,88079.00
2023-03-01T20:37:52.576Z,88079.00
2023-03-01T20:38:52.552Z,88077.00
2023-03-01T20:39:52.529Z,88083.00
2023-03-01T20:40:52.512Z,88081.00
2023-03-01T20:41:52.461Z,88081.00
2023-03-01T20:42:52.442Z,88079.00
2023-03-01T20:43:52.433Z,88079.00
2023-03-01T20:44:52.378Z,88075.00
2023-03-01T20:45:52.369Z,88071.00
2023-03-01T20:55:52.076Z,88075.00
2023-03-01T20:58:51.992Z,88073.00
2023-03-01T21:00:52.014Z,88077.00
2023-03-01T21:01:51.928Z,88077.00
2023-03-01T21:06:51.811Z,88075.00
2023-03-01T21:07:51.773Z,88077.00
2023-03-01T21:08:51.744Z,88077.00
2023-03-01T21:09:51.751Z,88079.00
2023-03-01T21:10:51.688Z,88077.00
2023-03-01T21:11:51.665Z,88079.00
2023-03-01T21:12:51.639Z,88079.00
2023-03-01T21:14:51.572Z,88077.00
2023-03-01T21:15:51.542Z,88081.00
2023-03-01T21:16:51.522Z,88083.00
2023-03-01T21:17:51.488Z,88089.00
2023-03-01T21:18:51.452Z,88089.00
2023-03-01T21:19:51.440Z,88085.00
2023-03-01T21:20:51.401Z,88087.00
2023-03-01T21:21:51.367Z,88087.00
2023-03-01T21:22:51.351Z,88083.00
2023-03-01T21:23:51.316Z,88085.00
2023-03-01T21:24:51.283Z,88085.00
2023-03-01T21:25:51.251Z,88083.00
2023-03-01T21:26:51.234Z,88077.00
2023-03-01T21:27:51.218Z,88079.00
2023-03-01T21:28:51.169Z,88079.00
2023-03-01T21:29:51.153Z,88081.00
2023-03-01T21:30:51.121Z,88079.00
2023-03-01T21:36:50.965Z,88079.00
2023-03-01T21:43:50.770Z,88077.00
2023-03-01T21:57:50.398Z,88081.00
2023-03-01T23:17:36.340Z,88044.00
2023-03-01T23:18:36.306Z,88044.00
2023-03-01T23:19:36.284Z,88046.00
2023-03-01T23:20:36.276Z,88044.00
2023-03-01T23:21:36.316Z,88046.00
2023-03-01T23:22:36.217Z,88044.00
2023-03-01T23:23:36.178Z,88044.00
2023-03-01T23:24:36.217Z,88049.00
2023-03-01T23:25:36.149Z,88046.00
2023-03-01T23:26:36.127Z,88038.00
2023-03-01T23:27:36.119Z,88042.00
2023-03-01T23:28:36.082Z,88042.00
2023-03-01T23:29:36.060Z,88040.00
2023-03-01T23:30:36.062Z,88040.00
2023-03-01T23:31:36.003Z,88040.00
2023-03-01T23:32:36.022Z,88044.00
2023-03-01T23:33:35.972Z,88046.00
2023-03-01T23:34:35.949Z,88047.00
2023-03-01T23:35:35.954Z,88047.00
2023-03-01T23:36:36.144Z,88047.00
2023-03-01T23:37:35.888Z,88047.00
2023-03-01T23:38:35.864Z,88044.00
2023-03-01T23:39:35.848Z,88046.00
2023-03-01T23:40:35.841Z,88047.00
2023-03-01T23:41:35.808Z,88047.00
2023-03-01T23:42:35.787Z,88049.00
2023-03-01T23:43:35.766Z,88047.00
2023-03-01T23:44:35.750Z,88049.00
2023-03-01T23:45:35.731Z,88046.00
2023-03-01T23:46:36.152Z,88047.00
2023-03-01T23:47:35.687Z,88049.00
2023-03-01T23:48:35.674Z,88049.00
2023-03-01T23:49:35.655Z,88051.00
2023-03-01T23:50:35.629Z,88049.00
2023-03-01T23:51:35.610Z,88051.00
2023-03-01T23:52:35.578Z,88047.00
2023-03-01T23:53:35.549Z,88049.00
2023-03-01T23:54:35.549Z,88055.00
2023-03-01T23:55:35.523Z,88055.00
2023-03-01T23:56:35.679Z,88057.00
2023-03-01T23:57:35.494Z,88055.00
2023-03-01T23:58:35.455Z,88057.00
2023-03-01T23:59:35.424Z,88057.00
